sensor_id;sensor_type;location;lat;lon;timestamp;temperature;humidity
13326;DHT22;6732;51.044;3.746;2022-08-19T00:00:40;21.10;99.90
13326;DHT22;6732;51.044;3.746;2022-08-19T00:03:06;21.10;99.90
13326;DHT22;6732;51.044;3.746;2022-08-19T00:05:33;21.10;99.90
13326;DHT22;6732;51.044;3.746;2022-08-19T00:07:58;21.10;99.90
13326;DHT22;6732;51.044;3.746;2022-08-19T00:10:24;21.10;99.90
13326;DHT22;6732;51.044;3.746;2022-08-19T00:12:51;21.10;99.90
13326;DHT22;6732;51.044;3.746;2022-08-19T00:15:20;21.00;99.90
13326;DHT22;6732;51.044;3.746;2022-08-19T00:17:46;21.00;99.90
13326;DHT22;6732;51.044;3.746;2022-08-19T00:20:16;21.00;99.90
13326;DHT22;6732;51.044;3.746;2022-08-19T00:22:43;21.00;99.90
13326;DHT22;6732;51.044;3.746;2022-08-19T00:25:10;21.00;99.90
13326;DHT22;6732;51.044;3.746;2022-08-19T00:27:37;21.00;99.90
13326;DHT22;6732;51.044;3.746;2022-08-19T00:30:05;21.00;99.90
13326;DHT22;6732;51.044;3.746;2022-08-19T00:32:31;20.90;99.90
13326;DHT22;6732;51.044;3.746;2022-08-19T00:34:58;20.90;99.90
13326;DHT22;6732;51.044;3.746;2022-08-19T00:37:24;20.90;99.90
13326;DHT22;6732;51.044;3.746;2022-08-19T00:39:52;20.90;99.90
13326;DHT22;6732;51.044;3.746;2022-08-19T00:42:20;20.90;99.90
13326;DHT22;6732;51.044;3.746;2022-08-19T00:44:46;20.90;99.90
13326;DHT22;6732;51.044;3.746;2022-08-19T00:47:13;20.90;99.90
13326;DHT22;6732;51.044;3.746;2022-08-19T00:49:55;20.90;99.90
13326;DHT22;6732;51.044;3.746;2022-08-19T00:52:25;20.90;99.90
13326;DHT22;6732;51.044;3.746;2022-08-19T00:54:55;20.80;99.90
13326;DHT22;6732;51.044;3.746;2022-08-19T00:57:35;20.80;99.90
13326;DHT22;6732;51.044;3.746;2022-08-19T01:00:09;20.80;99.90
13326;DHT22;6732;51.044;3.746;2022-08-19T01:02:37;20.80;99.90
13326;DHT22;6732;51.044;3.746;2022-08-19T01:05:08;20.80;99.90
13326;DHT22;6732;51.044;3.746;2022-08-19T01:07:35;20.80;99.90
13326;DHT22;6732;51.044;3.746;2022-08-19T01:10:05;20.80;99.90
13326;DHT22;6732;51.044;3.746;2022-08-19T01:12:32;20.70;99.90
13326;DHT22;6732;51.044;3.746;2022-08-19T01:14:59;20.70;99.90
13326;DHT22;6732;51.044;3.746;2022-08-19T01:17:25;20.70;99.90
13326;DHT22;6732;51.044;3.746;2022-08-19T01:19:51;20.70;99.90
13326;DHT22;6732;51.044;3.746;2022-08-19T01:24:50;20.70;99.90
13326;DHT22;6732;51.044;3.746;2022-08-19T01:27:17;20.70;99.90
13326;DHT22;6732;51.044;3.746;2022-08-19T01:29:44;20.60;99.90
13326;DHT22;6732;51.044;3.746;2022-08-19T01:32:15;20.60;99.90
13326;DHT22;6732;51.044;3.746;2022-08-19T01:34:42;20.60;99.90
13326;DHT22;6732;51.044;3.746;2022-08-19T01:37:13;20.60;99.90
13326;DHT22;6732;51.044;3.746;2022-08-19T01:39:40;20.60;99.90
13326;DHT22;6732;51.044;3.746;2022-08-19T01:42:08;20.60;99.90
13326;DHT22;6732;51.044;3.746;2022-08-19T01:44:38;20.60;99.90
13326;DHT22;6732;51.044;3.746;2022-08-19T01:47:04;20.60;99.90
13326;DHT22;6732;51.044;3.746;2022-08-19T01:49:31;20.50;99.90
13326;DHT22;6732;51.044;3.746;2022-08-19T01:51:59;20.50;99.90
13326;DHT22;6732;51.044;3.746;2022-08-19T01:54:26;20.50;99.90
13326;DHT22;6732;51.044;3.746;2022-08-19T01:57:00;20.50;99.90
13326;DHT22;6732;51.044;3.746;2022-08-19T01:59:27;20.50;99.90
13326;DHT22;6732;51.044;3.746;2022-08-19T02:01:53;20.50;99.90
13326;DHT22;6732;51.044;3.746;2022-08-19T02:04:19;20.40;99.90
13326;DHT22;6732;51.044;3.746;2022-08-19T02:06:46;20.40;99.90
13326;DHT22;6732;51.044;3.746;2022-08-19T02:09:13;20.40;99.90
13326;DHT22;6732;51.044;3.746;2022-08-19T02:11:41;20.50;99.90
13326;DHT22;6732;51.044;3.746;2022-08-19T02:14:08;20.40;99.90
13326;DHT22;6732;51.044;3.746;2022-08-19T02:16:35;20.40;99.90
13326;DHT22;6732;51.044;3.746;2022-08-19T02:19:01;20.40;99.90
13326;DHT22;6732;51.044;3.746;2022-08-19T02:21:28;20.40;99.90
13326;DHT22;6732;51.044;3.746;2022-08-19T02:23:54;20.40;99.90
13326;DHT22;6732;51.044;3.746;2022-08-19T02:26:21;20.40;99.90
13326;DHT22;6732;51.044;3.746;2022-08-19T02:28:47;20.30;99.90
13326;DHT22;6732;51.044;3.746;2022-08-19T02:31:19;20.30;99.90
13326;DHT22;6732;51.044;3.746;2022-08-19T02:33:46;20.30;99.90
13326;DHT22;6732;51.044;3.746;2022-08-19T02:36:15;20.30;99.90
13326;DHT22;6732;51.044;3.746;2022-08-19T02:38:42;20.30;99.90
13326;DHT22;6732;51.044;3.746;2022-08-19T02:41:17;20.30;99.90
13326;DHT22;6732;51.044;3.746;2022-08-19T02:43:44;20.30;99.90
13326;DHT22;6732;51.044;3.746;2022-08-19T02:46:14;20.20;99.90
13326;DHT22;6732;51.044;3.746;2022-08-19T02:48:40;20.20;99.90
13326;DHT22;6732;51.044;3.746;2022-08-19T02:51:06;20.20;99.90
13326;DHT22;6732;51.044;3.746;2022-08-19T02:53:32;20.20;99.90
13326;DHT22;6732;51.044;3.746;2022-08-19T02:55:58;20.20;99.90
13326;DHT22;6732;51.044;3.746;2022-08-19T02:58:24;20.20;99.90
13326;DHT22;6732;51.044;3.746;2022-08-19T03:00:54;20.20;99.90
13326;DHT22;6732;51.044;3.746;2022-08-19T03:03:21;20.20;99.90
13326;DHT22;6732;51.044;3.746;2022-08-19T03:05:47;20.20;99.90
13326;DHT22;6732;51.044;3.746;2022-08-19T03:08:13;20.20;99.90
13326;DHT22;6732;51.044;3.746;2022-08-19T03:10:44;20.10;99.90
13326;DHT22;6732;51.044;3.746;2022-08-19T03:13:13;20.10;99.90
13326;DHT22;6732;51.044;3.746;2022-08-19T03:15:41;20.10;99.90
13326;DHT22;6732;51.044;3.746;2022-08-19T03:18:07;20.10;99.90
13326;DHT22;6732;51.044;3.746;2022-08-19T03:20:33;20.10;99.90
13326;DHT22;6732;51.044;3.746;2022-08-19T03:22:59;20.10;99.90
13326;DHT22;6732;51.044;3.746;2022-08-19T03:25:25;20.10;99.90
13326;DHT22;6732;51.044;3.746;2022-08-19T03:27:51;20.10;99.90
13326;DHT22;6732;51.044;3.746;2022-08-19T03:30:17;20.10;99.90
13326;DHT22;6732;51.044;3.746;2022-08-19T03:32:43;20.00;99.90
13326;DHT22;6732;51.044;3.746;2022-08-19T03:35:09;20.00;99.90
13326;DHT22;6732;51.044;3.746;2022-08-19T03:37:35;20.00;99.90
13326;DHT22;6732;51.044;3.746;2022-08-19T03:40:01;20.00;99.90
13326;DHT22;6732;51.044;3.746;2022-08-19T03:42:29;20.00;99.90
13326;DHT22;6732;51.044;3.746;2022-08-19T03:44:55;20.00;99.90
13326;DHT22;6732;51.044;3.746;2022-08-19T03:47:21;20.00;99.90
13326;DHT22;6732;51.044;3.746;2022-08-19T03:49:47;20.00;99.90
13326;DHT22;6732;51.044;3.746;2022-08-19T03:52:13;20.00;99.90
13326;DHT22;6732;51.044;3.746;2022-08-19T03:54:39;20.00;99.90
13326;DHT22;6732;51.044;3.746;2022-08-19T03:57:05;20.00;99.90
13326;DHT22;6732;51.044;3.746;2022-08-19T03:59:34;20.00;99.90
13326;DHT22;6732;51.044;3.746;2022-08-19T04:02:04;20.00;99.90
13326;DHT22;6732;51.044;3.746;2022-08-19T04:04:31;20.00;99.90
13326;DHT22;6732;51.044;3.746;2022-08-19T04:06:57;20.00;99.90
13326;DHT22;6732;51.044;3.746;2022-08-19T04:09:24;20.00;99.90
13326;DHT22;6732;51.044;3.746;2022-08-19T04:11:52;20.00;99.90
13326;DHT22;6732;51.044;3.746;2022-08-19T04:14:25;19.90;99.90
13326;DHT22;6732;51.044;3.746;2022-08-19T04:16:52;19.90;99.90
13326;DHT22;6732;51.044;3.746;2022-08-19T04:19:18;19.90;99.90
13326;DHT22;6732;51.044;3.746;2022-08-19T04:21:46;19.90;99.90
13326;DHT22;6732;51.044;3.746;2022-08-19T04:24:13;19.90;99.90
13326;DHT22;6732;51.044;3.746;2022-08-19T04:26:40;19.90;99.90
13326;DHT22;6732;51.044;3.746;2022-08-19T04:29:13;19.90;99.90
13326;DHT22;6732;51.044;3.746;2022-08-19T04:31:40;19.90;99.90
13326;DHT22;6732;51.044;3.746;2022-08-19T04:34:10;19.90;99.90
13326;DHT22;6732;51.044;3.746;2022-08-19T04:36:38;19.90;99.90
13326;DHT22;6732;51.044;3.746;2022-08-19T04:39:08;19.80;99.90
13326;DHT22;6732;51.044;3.746;2022-08-19T04:41:35;19.80;99.90
13326;DHT22;6732;51.044;3.746;2022-08-19T04:44:19;19.80;99.90
13326;DHT22;6732;51.044;3.746;2022-08-19T04:46:47;19.80;99.90
13326;DHT22;6732;51.044;3.746;2022-08-19T04:49:14;19.80;99.90
13326;DHT22;6732;51.044;3.746;2022-08-19T04:51:43;19.80;99.90
13326;DHT22;6732;51.044;3.746;2022-08-19T04:54:09;19.80;99.90
13326;DHT22;6732;51.044;3.746;2022-08-19T04:56:35;19.80;99.90
13326;DHT22;6732;51.044;3.746;2022-08-19T04:59:01;19.80;99.90
13326;DHT22;6732;51.044;3.746;2022-08-19T05:01:32;19.80;99.90
13326;DHT22;6732;51.044;3.746;2022-08-19T05:04:00;19.80;99.90
13326;DHT22;6732;51.044;3.746;2022-08-19T05:06:27;19.80;99.90
13326;DHT22;6732;51.044;3.746;2022-08-19T05:08:54;19.80;99.90
13326;DHT22;6732;51.044;3.746;2022-08-19T05:11:29;19.80;99.90
13326;DHT22;6732;51.044;3.746;2022-08-19T05:13:56;19.80;99.90
13326;DHT22;6732;51.044;3.746;2022-08-19T05:16:24;19.80;99.90
13326;DHT22;6732;51.044;3.746;2022-08-19T05:18:51;19.80;99.90
13326;DHT22;6732;51.044;3.746;2022-08-19T05:21:36;19.80;99.90
13326;DHT22;6732;51.044;3.746;2022-08-19T05:24:22;19.80;99.90
13326;DHT22;6732;51.044;3.746;2022-08-19T05:26:52;19.80;99.90
13326;DHT22;6732;51.044;3.746;2022-08-19T05:29:20;19.80;99.90
13326;DHT22;6732;51.044;3.746;2022-08-19T05:31:48;19.80;99.90
13326;DHT22;6732;51.044;3.746;2022-08-19T05:34:19;19.80;99.90
13326;DHT22;6732;51.044;3.746;2022-08-19T05:36:49;19.80;99.90
13326;DHT22;6732;51.044;3.746;2022-08-19T05:39:19;19.80;99.90
13326;DHT22;6732;51.044;3.746;2022-08-19T05:41:48;19.80;99.90
13326;DHT22;6732;51.044;3.746;2022-08-19T05:44:16;19.80;99.90
13326;DHT22;6732;51.044;3.746;2022-08-19T05:46:45;19.80;99.90
13326;DHT22;6732;51.044;3.746;2022-08-19T05:49:15;19.80;99.90
13326;DHT22;6732;51.044;3.746;2022-08-19T05:51:42;19.80;99.90
13326;DHT22;6732;51.044;3.746;2022-08-19T05:54:08;19.80;99.90
13326;DHT22;6732;51.044;3.746;2022-08-19T05:56:35;19.90;99.90
13326;DHT22;6732;51.044;3.746;2022-08-19T05:59:07;19.90;99.90
13326;DHT22;6732;51.044;3.746;2022-08-19T06:01:36;19.90;99.90
13326;DHT22;6732;51.044;3.746;2022-08-19T06:04:04;19.90;99.90
13326;DHT22;6732;51.044;3.746;2022-08-19T06:06:30;19.90;99.90
13326;DHT22;6732;51.044;3.746;2022-08-19T06:08:56;19.90;99.90
13326;DHT22;6732;51.044;3.746;2022-08-19T06:11:25;19.90;99.90
13326;DHT22;6732;51.044;3.746;2022-08-19T06:14:01;19.90;99.90
13326;DHT22;6732;51.044;3.746;2022-08-19T06:16:27;20.00;99.90
13326;DHT22;6732;51.044;3.746;2022-08-19T06:18:56;19.90;99.90
13326;DHT22;6732;51.044;3.746;2022-08-19T06:21:25;20.00;99.90
13326;DHT22;6732;51.044;3.746;2022-08-19T06:23:53;20.00;99.90
13326;DHT22;6732;51.044;3.746;2022-08-19T06:26:20;20.00;99.90
13326;DHT22;6732;51.044;3.746;2022-08-19T06:28:47;20.00;99.90
13326;DHT22;6732;51.044;3.746;2022-08-19T06:31:16;20.00;99.90
13326;DHT22;6732;51.044;3.746;2022-08-19T06:33:44;20.00;99.90
13326;DHT22;6732;51.044;3.746;2022-08-19T06:36:40;20.10;99.90
13326;DHT22;6732;51.044;3.746;2022-08-19T06:39:28;20.10;99.90
13326;DHT22;6732;51.044;3.746;2022-08-19T06:41:58;20.10;99.90
13326;DHT22;6732;51.044;3.746;2022-08-19T06:44:26;20.10;99.90
13326;DHT22;6732;51.044;3.746;2022-08-19T06:46:54;20.20;99.90
13326;DHT22;6732;51.044;3.746;2022-08-19T06:49:22;20.20;99.90
13326;DHT22;6732;51.044;3.746;2022-08-19T06:51:49;20.20;99.90
13326;DHT22;6732;51.044;3.746;2022-08-19T06:54:16;20.20;99.90
13326;DHT22;6732;51.044;3.746;2022-08-19T06:56:43;20.20;99.90
13326;DHT22;6732;51.044;3.746;2022-08-19T06:59:14;20.20;99.90
13326;DHT22;6732;51.044;3.746;2022-08-19T07:01:44;20.30;99.90
13326;DHT22;6732;51.044;3.746;2022-08-19T07:04:11;20.30;99.90
13326;DHT22;6732;51.044;3.746;2022-08-19T07:06:38;20.30;99.90
13326;DHT22;6732;51.044;3.746;2022-08-19T07:09:05;20.40;99.90
13326;DHT22;6732;51.044;3.746;2022-08-19T07:11:32;20.30;99.90
13326;DHT22;6732;51.044;3.746;2022-08-19T07:13:59;20.40;99.90
13326;DHT22;6732;51.044;3.746;2022-08-19T07:16:26;20.40;99.90
13326;DHT22;6732;51.044;3.746;2022-08-19T07:18:54;20.40;99.90
13326;DHT22;6732;51.044;3.746;2022-08-19T07:21:26;20.40;99.90
13326;DHT22;6732;51.044;3.746;2022-08-19T07:23:54;20.40;99.90
13326;DHT22;6732;51.044;3.746;2022-08-19T07:26:24;20.40;99.90
13326;DHT22;6732;51.044;3.746;2022-08-19T07:28:50;20.50;99.90
13326;DHT22;6732;51.044;3.746;2022-08-19T07:31:21;20.50;99.90
13326;DHT22;6732;51.044;3.746;2022-08-19T07:33:49;20.50;99.90
13326;DHT22;6732;51.044;3.746;2022-08-19T07:36:18;20.50;99.90
13326;DHT22;6732;51.044;3.746;2022-08-19T07:38:47;20.50;99.90
13326;DHT22;6732;51.044;3.746;2022-08-19T07:41:18;20.50;99.90
13326;DHT22;6732;51.044;3.746;2022-08-19T07:43:45;20.60;99.90
13326;DHT22;6732;51.044;3.746;2022-08-19T07:46:12;20.60;99.90
13326;DHT22;6732;51.044;3.746;2022-08-19T07:48:43;20.60;99.90
13326;DHT22;6732;51.044;3.746;2022-08-19T07:51:14;20.60;99.90
13326;DHT22;6732;51.044;3.746;2022-08-19T07:53:41;20.60;99.90
13326;DHT22;6732;51.044;3.746;2022-08-19T07:56:08;20.60;99.90
13326;DHT22;6732;51.044;3.746;2022-08-19T07:58:41;20.60;99.90
13326;DHT22;6732;51.044;3.746;2022-08-19T08:01:10;20.60;99.90
13326;DHT22;6732;51.044;3.746;2022-08-19T08:03:37;20.60;99.90
13326;DHT22;6732;51.044;3.746;2022-08-19T08:06:22;20.70;99.90
13326;DHT22;6732;51.044;3.746;2022-08-19T08:09:07;20.70;99.90
13326;DHT22;6732;51.044;3.746;2022-08-19T08:11:45;20.70;99.90
13326;DHT22;6732;51.044;3.746;2022-08-19T08:14:20;20.70;99.90
13326;DHT22;6732;51.044;3.746;2022-08-19T08:16:49;20.70;99.90
13326;DHT22;6732;51.044;3.746;2022-08-19T08:19:26;20.70;99.90
13326;DHT22;6732;51.044;3.746;2022-08-19T08:21:57;20.80;99.90
13326;DHT22;6732;51.044;3.746;2022-08-19T08:24:25;20.80;99.90
13326;DHT22;6732;51.044;3.746;2022-08-19T08:26:52;20.80;99.90
13326;DHT22;6732;51.044;3.746;2022-08-19T08:29:18;20.80;99.90
13326;DHT22;6732;51.044;3.746;2022-08-19T08:31:48;20.80;99.90
13326;DHT22;6732;51.044;3.746;2022-08-19T08:34:14;20.80;99.90
13326;DHT22;6732;51.044;3.746;2022-08-19T08:36:43;20.80;99.90
13326;DHT22;6732;51.044;3.746;2022-08-19T08:39:16;20.80;99.90
13326;DHT22;6732;51.044;3.746;2022-08-19T08:42:27;20.80;99.90
13326;DHT22;6732;51.044;3.746;2022-08-19T08:45:05;20.80;99.90
13326;DHT22;6732;51.044;3.746;2022-08-19T08:47:37;20.90;99.90
13326;DHT22;6732;51.044;3.746;2022-08-19T08:50:32;20.80;99.90
13326;DHT22;6732;51.044;3.746;2022-08-19T08:53:02;20.90;99.90
13326;DHT22;6732;51.044;3.746;2022-08-19T08:55:31;20.90;99.90
13326;DHT22;6732;51.044;3.746;2022-08-19T08:58:12;21.00;99.90
13326;DHT22;6732;51.044;3.746;2022-08-19T09:00:45;21.00;99.90
13326;DHT22;6732;51.044;3.746;2022-08-19T09:03:20;21.10;99.90
13326;DHT22;6732;51.044;3.746;2022-08-19T09:08:37;21.10;99.90
13326;DHT22;6732;51.044;3.746;2022-08-19T09:11:08;21.10;99.90
13326;DHT22;6732;51.044;3.746;2022-08-19T09:16:26;21.20;99.90
13326;DHT22;6732;51.044;3.746;2022-08-19T09:18:56;21.20;99.90
13326;DHT22;6732;51.044;3.746;2022-08-19T09:21:25;21.20;99.90
13326;DHT22;6732;51.044;3.746;2022-08-19T09:23:52;21.20;99.90
13326;DHT22;6732;51.044;3.746;2022-08-19T09:26:22;21.10;99.90
13326;DHT22;6732;51.044;3.746;2022-08-19T09:28:50;21.10;99.90
13326;DHT22;6732;51.044;3.746;2022-08-19T09:31:19;21.20;99.90
13326;DHT22;6732;51.044;3.746;2022-08-19T09:33:45;21.30;99.90
13326;DHT22;6732;51.044;3.746;2022-08-19T09:36:15;21.30;99.90
13326;DHT22;6732;51.044;3.746;2022-08-19T09:38:42;21.40;99.90
13326;DHT22;6732;51.044;3.746;2022-08-19T09:41:11;21.50;99.90
13326;DHT22;6732;51.044;3.746;2022-08-19T09:43:40;21.60;99.90
13326;DHT22;6732;51.044;3.746;2022-08-19T09:46:08;21.60;99.90
13326;DHT22;6732;51.044;3.746;2022-08-19T09:48:39;21.70;99.90
13326;DHT22;6732;51.044;3.746;2022-08-19T09:51:11;21.70;99.90
13326;DHT22;6732;51.044;3.746;2022-08-19T09:53:45;21.70;99.90
13326;DHT22;6732;51.044;3.746;2022-08-19T09:56:12;21.70;99.90
13326;DHT22;6732;51.044;3.746;2022-08-19T09:58:38;21.70;99.90
13326;DHT22;6732;51.044;3.746;2022-08-19T10:01:06;21.70;99.90
13326;DHT22;6732;51.044;3.746;2022-08-19T10:03:34;21.80;99.90
13326;DHT22;6732;51.044;3.746;2022-08-19T10:06:03;21.80;99.90
13326;DHT22;6732;51.044;3.746;2022-08-19T10:08:31;21.80;99.90
13326;DHT22;6732;51.044;3.746;2022-08-19T10:10:59;21.80;99.90
13326;DHT22;6732;51.044;3.746;2022-08-19T10:13:28;21.80;99.90
13326;DHT22;6732;51.044;3.746;2022-08-19T10:16:07;21.80;99.90
13326;DHT22;6732;51.044;3.746;2022-08-19T10:18:36;21.80;99.90
13326;DHT22;6732;51.044;3.746;2022-08-19T10:21:06;21.80;99.90
13326;DHT22;6732;51.044;3.746;2022-08-19T10:23:35;21.80;99.90
13326;DHT22;6732;51.044;3.746;2022-08-19T10:26:03;21.80;99.90
13326;DHT22;6732;51.044;3.746;2022-08-19T10:28:33;21.80;99.90
13326;DHT22;6732;51.044;3.746;2022-08-19T10:31:04;21.80;99.90
13326;DHT22;6732;51.044;3.746;2022-08-19T10:33:30;21.80;99.90
13326;DHT22;6732;51.044;3.746;2022-08-19T10:36:01;21.80;99.90
13326;DHT22;6732;51.044;3.746;2022-08-19T10:38:28;21.80;99.90
13326;DHT22;6732;51.044;3.746;2022-08-19T10:40:54;21.80;99.90
13326;DHT22;6732;51.044;3.746;2022-08-19T10:43:20;21.80;99.90
13326;DHT22;6732;51.044;3.746;2022-08-19T10:45:54;21.80;99.90
13326;DHT22;6732;51.044;3.746;2022-08-19T10:48:24;21.80;99.90
13326;DHT22;6732;51.044;3.746;2022-08-19T10:50:50;21.80;99.90
13326;DHT22;6732;51.044;3.746;2022-08-19T10:53:34;21.80;99.90
13326;DHT22;6732;51.044;3.746;2022-08-19T10:56:00;21.80;99.90
13326;DHT22;6732;51.044;3.746;2022-08-19T10:58:44;21.90;99.90
13326;DHT22;6732;51.044;3.746;2022-08-19T11:01:11;21.80;99.90
13326;DHT22;6732;51.044;3.746;2022-08-19T11:03:37;21.90;99.90
13326;DHT22;6732;51.044;3.746;2022-08-19T11:06:05;21.90;99.90
13326;DHT22;6732;51.044;3.746;2022-08-19T11:08:32;21.90;99.90
13326;DHT22;6732;51.044;3.746;2022-08-19T11:11:01;21.90;99.90
13326;DHT22;6732;51.044;3.746;2022-08-19T11:13:31;21.90;99.90
13326;DHT22;6732;51.044;3.746;2022-08-19T11:16:01;21.90;99.90
13326;DHT22;6732;51.044;3.746;2022-08-19T11:18:28;21.90;99.90
13326;DHT22;6732;51.044;3.746;2022-08-19T11:20:54;21.90;99.90
13326;DHT22;6732;51.044;3.746;2022-08-19T11:23:20;21.90;99.90
13326;DHT22;6732;51.044;3.746;2022-08-19T11:25:46;22.00;99.90
13326;DHT22;6732;51.044;3.746;2022-08-19T11:28:12;22.00;99.90
13326;DHT22;6732;51.044;3.746;2022-08-19T11:30:39;21.90;99.90
13326;DHT22;6732;51.044;3.746;2022-08-19T11:33:04;22.00;99.90
13326;DHT22;6732;51.044;3.746;2022-08-19T11:35:31;22.00;99.90
13326;DHT22;6732;51.044;3.746;2022-08-19T11:37:58;22.00;99.90
13326;DHT22;6732;51.044;3.746;2022-08-19T11:40:26;22.00;99.90
13326;DHT22;6732;51.044;3.746;2022-08-19T11:42:52;22.00;99.90
13326;DHT22;6732;51.044;3.746;2022-08-19T11:45:26;22.00;99.90
13326;DHT22;6732;51.044;3.746;2022-08-19T11:47:53;22.00;99.90
13326;DHT22;6732;51.044;3.746;2022-08-19T11:50:19;22.00;99.90
13326;DHT22;6732;51.044;3.746;2022-08-19T11:52:46;22.00;99.90
13326;DHT22;6732;51.044;3.746;2022-08-19T11:55:13;22.10;99.90
13326;DHT22;6732;51.044;3.746;2022-08-19T11:57:40;22.10;99.90
13326;DHT22;6732;51.044;3.746;2022-08-19T12:00:10;22.10;99.90
13326;DHT22;6732;51.044;3.746;2022-08-19T12:02:38;22.10;99.90
13326;DHT22;6732;51.044;3.746;2022-08-19T12:05:05;22.10;99.90
13326;DHT22;6732;51.044;3.746;2022-08-19T12:07:32;22.20;99.90
13326;DHT22;6732;51.044;3.746;2022-08-19T12:09:59;22.20;99.90
13326;DHT22;6732;51.044;3.746;2022-08-19T12:12:27;22.20;99.90
13326;DHT22;6732;51.044;3.746;2022-08-19T12:14:53;22.20;99.90
13326;DHT22;6732;51.044;3.746;2022-08-19T12:17:23;22.30;99.90
13326;DHT22;6732;51.044;3.746;2022-08-19T12:19:49;22.30;99.90
13326;DHT22;6732;51.044;3.746;2022-08-19T12:22:15;22.30;99.90
13326;DHT22;6732;51.044;3.746;2022-08-19T12:24:41;22.30;99.90
13326;DHT22;6732;51.044;3.746;2022-08-19T12:27:07;22.40;99.90
13326;DHT22;6732;51.044;3.746;2022-08-19T12:29:33;22.40;99.90
13326;DHT22;6732;51.044;3.746;2022-08-19T12:31:59;22.40;99.90
13326;DHT22;6732;51.044;3.746;2022-08-19T12:34:29;22.40;99.90
13326;DHT22;6732;51.044;3.746;2022-08-19T12:37:00;22.40;99.90
13326;DHT22;6732;51.044;3.746;2022-08-19T12:39:27;22.50;99.90
13326;DHT22;6732;51.044;3.746;2022-08-19T12:41:53;22.50;99.90
13326;DHT22;6732;51.044;3.746;2022-08-19T12:44:18;22.50;99.90
13326;DHT22;6732;51.044;3.746;2022-08-19T12:46:45;22.50;99.90
13326;DHT22;6732;51.044;3.746;2022-08-19T12:49:12;22.50;99.90
13326;DHT22;6732;51.044;3.746;2022-08-19T12:51:38;22.50;99.90
13326;DHT22;6732;51.044;3.746;2022-08-19T12:54:04;22.50;99.90
13326;DHT22;6732;51.044;3.746;2022-08-19T12:56:30;22.50;99.90
13326;DHT22;6732;51.044;3.746;2022-08-19T12:58:57;22.50;99.90
13326;DHT22;6732;51.044;3.746;2022-08-19T13:01:23;22.50;99.90
13326;DHT22;6732;51.044;3.746;2022-08-19T13:03:49;22.60;99.90
13326;DHT22;6732;51.044;3.746;2022-08-19T13:06:17;22.60;99.90
13326;DHT22;6732;51.044;3.746;2022-08-19T13:08:43;22.60;99.90
13326;DHT22;6732;51.044;3.746;2022-08-19T13:11:14;22.60;99.90
13326;DHT22;6732;51.044;3.746;2022-08-19T13:13:43;22.60;99.90
13326;DHT22;6732;51.044;3.746;2022-08-19T13:16:11;22.70;99.90
13326;DHT22;6732;51.044;3.746;2022-08-19T13:18:38;22.70;99.90
13326;DHT22;6732;51.044;3.746;2022-08-19T13:21:06;22.70;99.90
13326;DHT22;6732;51.044;3.746;2022-08-19T13:23:33;22.70;99.90
13326;DHT22;6732;51.044;3.746;2022-08-19T13:26:01;22.70;99.90
13326;DHT22;6732;51.044;3.746;2022-08-19T13:28:28;22.80;99.90
13326;DHT22;6732;51.044;3.746;2022-08-19T13:31:19;22.80;99.90
13326;DHT22;6732;51.044;3.746;2022-08-19T13:34:04;22.80;99.90
13326;DHT22;6732;51.044;3.746;2022-08-19T13:36:32;22.70;99.90
13326;DHT22;6732;51.044;3.746;2022-08-19T13:38:58;22.70;99.90
13326;DHT22;6732;51.044;3.746;2022-08-19T13:41:25;22.70;99.90
13326;DHT22;6732;51.044;3.746;2022-08-19T13:43:52;22.70;99.90
13326;DHT22;6732;51.044;3.746;2022-08-19T13:46:18;22.70;99.90
13326;DHT22;6732;51.044;3.746;2022-08-19T13:48:46;22.60;99.90
13326;DHT22;6732;51.044;3.746;2022-08-19T13:51:17;22.60;99.90
13326;DHT22;6732;51.044;3.746;2022-08-19T13:53:44;22.60;99.90
13326;DHT22;6732;51.044;3.746;2022-08-19T13:56:12;22.60;99.90
13326;DHT22;6732;51.044;3.746;2022-08-19T13:58:39;22.60;99.90
13326;DHT22;6732;51.044;3.746;2022-08-19T14:01:06;22.60;99.90
13326;DHT22;6732;51.044;3.746;2022-08-19T14:03:33;22.60;99.90
13326;DHT22;6732;51.044;3.746;2022-08-19T14:06:00;22.60;99.90
13326;DHT22;6732;51.044;3.746;2022-08-19T14:08:26;22.60;99.90
13326;DHT22;6732;51.044;3.746;2022-08-19T14:10:56;22.60;99.90
13326;DHT22;6732;51.044;3.746;2022-08-19T14:13:23;22.60;99.90
13326;DHT22;6732;51.044;3.746;2022-08-19T14:15:50;22.60;99.90
13326;DHT22;6732;51.044;3.746;2022-08-19T14:18:17;22.60;99.90
13326;DHT22;6732;51.044;3.746;2022-08-19T14:20:43;22.60;99.90
13326;DHT22;6732;51.044;3.746;2022-08-19T14:23:10;22.60;99.90
13326;DHT22;6732;51.044;3.746;2022-08-19T14:25:38;22.60;99.90
13326;DHT22;6732;51.044;3.746;2022-08-19T14:28:04;22.60;99.90
13326;DHT22;6732;51.044;3.746;2022-08-19T14:30:32;22.60;99.90
13326;DHT22;6732;51.044;3.746;2022-08-19T14:33:00;22.60;99.90
13326;DHT22;6732;51.044;3.746;2022-08-19T14:35:27;22.60;99.90
13326;DHT22;6732;51.044;3.746;2022-08-19T14:37:55;22.60;99.90
13326;DHT22;6732;51.044;3.746;2022-08-19T14:40:23;22.60;99.90
13326;DHT22;6732;51.044;3.746;2022-08-19T14:42:55;22.60;99.90
13326;DHT22;6732;51.044;3.746;2022-08-19T14:45:26;22.60;99.90
13326;DHT22;6732;51.044;3.746;2022-08-19T14:47:53;22.60;99.90
13326;DHT22;6732;51.044;3.746;2022-08-19T14:50:19;22.60;99.90
13326;DHT22;6732;51.044;3.746;2022-08-19T14:52:46;22.60;99.90
13326;DHT22;6732;51.044;3.746;2022-08-19T14:55:17;22.60;99.90
13326;DHT22;6732;51.044;3.746;2022-08-19T14:57:44;22.60;99.90
13326;DHT22;6732;51.044;3.746;2022-08-19T15:00:11;22.60;99.90
13326;DHT22;6732;51.044;3.746;2022-08-19T15:02:39;22.60;99.90
13326;DHT22;6732;51.044;3.746;2022-08-19T15:05:05;22.70;99.90
13326;DHT22;6732;51.044;3.746;2022-08-19T15:07:32;22.60;99.90
13326;DHT22;6732;51.044;3.746;2022-08-19T15:09:58;22.60;99.90
13326;DHT22;6732;51.044;3.746;2022-08-19T15:12:24;22.70;99.90
13326;DHT22;6732;51.044;3.746;2022-08-19T15:14:51;22.70;99.90
13326;DHT22;6732;51.044;3.746;2022-08-19T15:17:17;22.70;99.90
13326;DHT22;6732;51.044;3.746;2022-08-19T15:19:45;22.70;99.90
13326;DHT22;6732;51.044;3.746;2022-08-19T15:22:11;22.70;99.90
13326;DHT22;6732;51.044;3.746;2022-08-19T15:24:37;22.70;99.90
13326;DHT22;6732;51.044;3.746;2022-08-19T15:27:04;22.70;99.90
13326;DHT22;6732;51.044;3.746;2022-08-19T15:29:31;22.70;99.90
13326;DHT22;6732;51.044;3.746;2022-08-19T15:31:58;22.70;99.90
13326;DHT22;6732;51.044;3.746;2022-08-19T15:34:25;22.70;99.90
13326;DHT22;6732;51.044;3.746;2022-08-19T15:36:52;22.70;99.90
13326;DHT22;6732;51.044;3.746;2022-08-19T15:39:18;22.70;99.90
13326;DHT22;6732;51.044;3.746;2022-08-19T15:41:45;22.70;99.90
13326;DHT22;6732;51.044;3.746;2022-08-19T15:44:16;22.70;99.90
13326;DHT22;6732;51.044;3.746;2022-08-19T15:46:44;22.70;99.90
13326;DHT22;6732;51.044;3.746;2022-08-19T15:49:12;22.70;99.90
13326;DHT22;6732;51.044;3.746;2022-08-19T15:51:40;22.70;99.90
13326;DHT22;6732;51.044;3.746;2022-08-19T15:54:10;22.70;99.90
13326;DHT22;6732;51.044;3.746;2022-08-19T15:56:37;22.70;99.90
13326;DHT22;6732;51.044;3.746;2022-08-19T15:59:22;22.70;99.90
13326;DHT22;6732;51.044;3.746;2022-08-19T16:02:07;22.70;99.90